Terminal Aerodrome Forecast
Issued by NWS Billings, MT

Home | Current Version | Previous Version | Text Only | Print | Product List | Glossary On
Versions: 1 2 3 4 5 6 7 8 9 10 11 12 13 14 15 16 17 18
000
FTUS45 KBYZ 281736
TAFMLS
TAF
KMLS 281736Z 2818/2918 16008KT P6SM SCT080 BKN100
     FM281900 19012KT P6SM VCTS SCT060CB BKN100
     FM290200 24012KT P6SM BKN100
     FM291500 31015G25KT P6SM SCT080 SCT150=

USA.gov is the U.S. government's official web portal to all federal, state and local government web resources and services.